Time;durP1;ratioP1;P1;durP2;ratioP2;P2;SDS_P1;SDS_P2;PMS_P1;PMS_P2;Temp;Humidity;BMP_temperature;BMP_pressure;BME280_temperature;BME280_humidity;BME280_pressure;Samples;Min_cycle;Max_cycle;Signal;HPM_P1;HPM_P2
2022/07/09 00:00:06;;;;;;;19.23;5.93;;;16.30;99.90;;;;;;5002996;28;209739;-80
2022/07/09 00:02:34;;;;;;;18.17;6.22;;;16.30;99.90;;;;;;4944012;28;221178;-80
2022/07/09 00:05:01;;;;;;;16.92;6.05;;;16.30;99.90;;;;;;4975447;28;225615;-80
2022/07/09 00:07:27;;;;;;;16.85;6.32;;;16.30;99.90;;;;;;4949349;28;130548;-81
2022/07/09 00:09:53;;;;;;;19.10;5.90;;;16.20;99.90;;;;;;4995648;28;159432;-80
2022/07/09 00:12:19;;;;;;;15.70;5.32;;;16.20;99.90;;;;;;4956119;28;226827;-80
2022/07/09 00:14:45;;;;;;;21.33;6.07;;;16.20;99.90;;;;;;4997949;28;164231;-80
2022/07/09 00:17:11;;;;;;;16.13;6.07;;;16.20;99.90;;;;;;4934749;28;204762;-80
2022/07/09 00:19:37;;;;;;;16.05;5.90;;;16.20;99.90;;;;;;4986858;28;26106;-79
2022/07/09 00:22:05;;;;;;;16.25;5.95;;;16.10;99.90;;;;;;4954375;28;202466;-80
2022/07/09 00:24:32;;;;;;;18.25;6.72;;;16.10;99.90;;;;;;5007194;28;22611;-80
2022/07/09 00:26:58;;;;;;;16.92;7.15;;;16.10;99.90;;;;;;4971715;28;219825;-80
2022/07/09 00:29:24;;;;;;;19.08;6.38;;;16.10;99.90;;;;;;4998642;28;273610;-80
2022/07/09 00:31:50;;;;;;;16.52;6.45;;;16.10;99.90;;;;;;4965596;28;104954;-80
2022/07/09 00:34:16;;;;;;;15.15;6.78;;;16.00;99.90;;;;;;4973196;28;263629;-80
2022/07/09 00:36:42;;;;;;;18.00;7.43;;;16.00;99.90;;;;;;4950546;28;204558;-80
2022/07/09 00:39:09;;;;;;;16.98;6.60;;;16.00;99.90;;;;;;4997126;28;20553;-80
2022/07/09 00:41:35;;;;;;;20.38;7.30;;;16.00;99.90;;;;;;4954054;28;208643;-80
2022/07/09 00:44:01;;;;;;;15.98;6.50;;;16.00;99.90;;;;;;5004050;28;20058;-80
2022/07/09 00:46:28;;;;;;;19.40;6.97;;;16.00;99.90;;;;;;4905522;28;210310;-80
2022/07/09 00:48:54;;;;;;;17.27;7.13;;;16.00;99.90;;;;;;4998149;28;20500;-79
2022/07/09 00:51:20;;;;;;;16.90;7.00;;;16.00;99.90;;;;;;4937411;28;210075;-80
2022/07/09 00:53:48;;;;;;;19.05;7.32;;;16.00;99.90;;;;;;4996307;28;20388;-79
2022/07/09 00:56:14;;;;;;;16.35;6.70;;;16.00;99.90;;;;;;4927612;28;208835;-80
2022/07/09 00:58:43;;;;;;;16.48;7.00;;;15.90;99.90;;;;;;4985474;28;20054;-80
2022/07/09 01:01:10;;;;;;;19.17;7.82;;;15.90;99.90;;;;;;4944312;28;206480;-80
2022/07/09 01:03:36;;;;;;;18.02;7.78;;;15.90;99.90;;;;;;5014298;28;20050;-79
2022/07/09 01:06:02;;;;;;;17.58;6.97;;;15.90;99.90;;;;;;4934012;28;217543;-80
2022/07/09 01:08:28;;;;;;;20.08;6.70;;;15.90;99.90;;;;;;5012385;28;20050;-80
2022/07/09 01:10:55;;;;;;;20.02;7.28;;;15.90;99.90;;;;;;4943800;28;233074;-79
2022/07/09 01:13:21;;;;;;;15.38;7.53;;;16.00;99.90;;;;;;4989777;28;20054;-79
2022/07/09 01:15:47;;;;;;;16.58;6.75;;;16.00;99.90;;;;;;4945896;28;205623;-79
2022/07/09 01:18:13;;;;;;;19.08;7.47;;;16.00;99.90;;;;;;4984070;28;20057;-80
2022/07/09 01:20:40;;;;;;;17.25;7.35;;;16.00;99.90;;;;;;4940642;28;210676;-81
2022/07/09 01:23:07;;;;;;;19.05;7.78;;;16.00;99.90;;;;;;4990010;28;20065;-81
2022/07/09 01:25:38;;;;;;;17.88;6.60;;;16.00;99.90;;;;;;4941874;28;205990;-80
2022/07/09 01:28:05;;;;;;;;;;;16.00;99.90;;;;;;4989187;28;20044;-80
2022/07/09 01:30:33;;;;;;;16.73;7.37;;;16.00;99.90;;;;;;4945031;28;204048;-80
2022/07/09 01:33:00;;;;;;;16.40;7.10;;;16.00;99.90;;;;;;5004073;28;20041;-80
2022/07/09 01:35:26;;;;;;;18.55;8.18;;;16.00;99.90;;;;;;4944575;28;212052;-80
2022/07/09 01:37:56;;;;;;;18.55;7.88;;;16.00;99.90;;;;;;4971848;28;20054;-80
2022/07/09 01:40:23;;;;;;;19.67;7.82;;;16.00;99.90;;;;;;4942734;28;240912;-79
2022/07/09 01:42:49;;;;;;;20.67;8.30;;;16.00;99.90;;;;;;5001422;28;20046;-79
2022/07/09 01:45:16;;;;;;;17.88;8.20;;;16.00;99.90;;;;;;4986254;28;117762;-79
2022/07/09 01:47:42;;;;;;;22.25;8.00;;;16.10;99.90;;;;;;4957303;28;117546;-79
2022/07/09 01:50:09;;;;;;;19.77;8.15;;;16.10;99.90;;;;;;4985597;28;216544;-80
2022/07/09 01:52:35;;;;;;;18.25;8.13;;;16.10;99.90;;;;;;4955058;28;139860;-80
2022/07/09 01:55:02;;;;;;;23.63;9.25;;;16.00;99.90;;;;;;4974845;28;20447;-81
2022/07/09 01:57:28;;;;;;;21.50;7.90;;;16.00;99.90;;;;;;4927194;28;207320;-80
2022/07/09 01:59:54;;;;;;;19.98;8.68;;;16.00;99.90;;;;;;4993557;28;20045;-80
2022/07/09 02:02:20;;;;;;;22.75;9.00;;;16.00;99.90;;;;;;4951728;28;206445;-80
2022/07/09 02:04:47;;;;;;;17.00;9.20;;;16.00;99.90;;;;;;4962472;28;124158;-80
2022/07/09 02:07:14;;;;;;;24.23;10.48;;;16.00;99.90;;;;;;4908532;28;213873;-80
2022/07/09 02:09:40;;;;;;;20.27;9.00;;;16.00;99.90;;;;;;4984145;28;136803;-79
2022/07/09 02:12:07;;;;;;;21.30;9.75;;;16.00;99.90;;;;;;4955278;28;209950;-80
2022/07/09 02:14:33;;;;;;;19.05;9.93;;;15.90;99.90;;;;;;4993105;28;79572;-80
2022/07/09 02:16:59;;;;;;;26.88;11.43;;;15.90;99.90;;;;;;4962482;28;208649;-80
2022/07/09 02:19:25;;;;;;;20.75;10.07;;;16.00;99.90;;;;;;4982469;28;252011;-80
2022/07/09 02:21:52;;;;;;;21.33;10.30;;;15.90;99.90;;;;;;4933639;28;242525;-80
2022/07/09 02:24:18;;;;;;;22.63;10.57;;;15.90;99.90;;;;;;4968333;28;244301;-79
2022/07/09 02:26:44;;;;;;;22.08;10.43;;;15.80;99.90;;;;;;4938155;28;215832;-80
2022/07/09 02:29:10;;;;;;;23.90;10.10;;;15.80;99.90;;;;;;4982358;28;251182;-79
2022/07/09 02:31:36;;;;;;;19.75;9.70;;;15.80;99.90;;;;;;4957906;28;207173;-80
2022/07/09 02:34:02;;;;;;;20.92;9.52;;;15.80;99.90;;;;;;5014039;28;20057;-80
2022/07/09 02:36:29;;;;;;;20.33;9.80;;;15.80;99.90;;;;;;4940937;28;213668;-80
2022/07/09 02:38:56;;;;;;;21.92;9.80;;;15.80;99.90;;;;;;4994883;28;20064;-80
2022/07/09 02:41:22;;;;;;;18.85;9.30;;;15.80;99.90;;;;;;4929368;28;203382;-80
2022/07/09 02:43:48;;;;;;;22.65;9.57;;;15.80;99.90;;;;;;4970701;28;20046;-80
2022/07/09 02:46:15;;;;;;;19.67;9.75;;;15.90;99.90;;;;;;4940360;28;206095;-80
2022/07/09 02:48:41;;;;;;;23.52;9.68;;;15.90;99.90;;;;;;4997145;28;20058;-81
2022/07/09 02:51:07;;;;;;;22.52;9.40;;;15.80;99.90;;;;;;4933323;28;278771;-81
2022/07/09 02:53:34;;;;;;;23.52;10.20;;;15.80;99.90;;;;;;4990423;28;20074;-81
2022/07/09 02:56:00;;;;;;;20.15;9.77;;;15.80;99.90;;;;;;4936684;28;240002;-81
2022/07/09 02:58:26;;;;;;;18.50;8.82;;;15.80;99.90;;;;;;4985793;28;20542;-80
2022/07/09 03:00:52;;;;;;;20.88;9.88;;;15.80;99.90;;;;;;4946860;28;252769;-81
2022/07/09 03:03:20;;;;;;;21.60;9.60;;;15.70;99.90;;;;;;4993131;28;20042;-80
2022/07/09 03:05:46;;;;;;;21.08;9.23;;;15.80;99.90;;;;;;4930524;28;206084;-80
2022/07/09 03:08:12;;;;;;;19.67;9.10;;;15.80;99.90;;;;;;4981645;28;20049;-81
2022/07/09 03:10:38;;;;;;;21.75;8.80;;;15.80;99.90;;;;;;4936833;28;203866;-81
2022/07/09 03:13:04;;;;;;;20.02;8.60;;;15.90;99.90;;;;;;4984452;28;20105;-81
2022/07/09 03:15:31;;;;;;;18.20;7.60;;;15.80;99.90;;;;;;4946898;28;204466;-80
2022/07/09 03:17:57;;;;;;;19.95;8.15;;;15.80;99.90;;;;;;4997921;28;20055;-80
2022/07/09 03:20:23;;;;;;;17.23;7.88;;;15.90;99.90;;;;;;4933233;28;207547;-80
2022/07/09 03:22:49;;;;;;;19.50;7.63;;;15.90;99.90;;;;;;4984303;28;20058;-81
2022/07/09 03:25:15;;;;;;;19.95;8.48;;;15.80;99.90;;;;;;4982623;28;177280;-81
2022/07/09 03:27:41;;;;;;;19.83;8.45;;;15.80;99.90;;;;;;4950563;28;177657;-80
2022/07/09 03:30:08;;;;;;;20.58;7.18;;;15.80;99.90;;;;;;5013932;28;99482;-82
2022/07/09 03:32:34;;;;;;;17.70;7.50;;;15.80;99.90;;;;;;4967702;28;203305;-82
2022/07/09 03:35:00;;;;;;;18.75;7.18;;;15.70;99.90;;;;;;5008511;28;182594;-80
2022/07/09 03:37:26;;;;;;;16.50;8.00;;;15.70;99.90;;;;;;4961294;28;204147;-83
2022/07/09 03:39:52;;;;;;;17.45;7.45;;;15.70;99.90;;;;;;4983906;28;205846;-81
2022/07/09 03:42:19;;;;;;;18.08;7.90;;;15.70;99.90;;;;;;4943638;28;206590;-81
2022/07/09 03:44:45;;;;;;;18.52;7.45;;;15.70;99.90;;;;;;5000432;28;252976;-81
2022/07/09 03:47:11;;;;;;;16.75;7.25;;;15.70;99.90;;;;;;4948745;28;204858;-82
2022/07/09 03:49:40;;;;;;;20.85;7.90;;;15.70;99.90;;;;;;5005512;28;38534;-81
2022/07/09 03:52:06;;;;;;;20.83;7.32;;;15.70;99.90;;;;;;4960793;28;185718;-81
2022/07/09 03:54:32;;;;;;;15.38;6.90;;;15.70;99.90;;;;;;4991624;28;226712;-81
2022/07/09 03:56:58;;;;;;;17.05;6.50;;;15.80;99.90;;;;;;4950954;28;206273;-81
2022/07/09 03:59:24;;;;;;;20.38;7.22;;;15.80;99.90;;;;;;4970848;28;275854;-81
2022/07/09 04:01:50;;;;;;;19.05;6.82;;;15.80;99.90;;;;;;4934974;28;217943;-81
2022/07/09 04:04:17;;;;;;;18.70;7.00;;;15.80;99.90;;;;;;4952212;28;265452;-80
2022/07/09 04:06:43;;;;;;;21.17;6.65;;;15.80;99.90;;;;;;4946729;28;213456;-81
2022/07/09 04:09:09;;;;;;;18.45;6.82;;;15.80;99.90;;;;;;4991293;28;20176;-81
2022/07/09 04:11:35;;;;;;;15.57;5.93;;;15.80;99.90;;;;;;4922401;28;202773;-82
2022/07/09 04:14:01;;;;;;;17.00;6.93;;;15.80;99.90;;;;;;4983105;28;20054;-82
2022/07/09 04:16:28;;;;;;;17.02;6.93;;;15.80;99.90;;;;;;4939370;28;193849;-82
2022/07/09 04:18:54;;;;;;;15.10;6.40;;;15.80;99.90;;;;;;4995371;28;20076;-81
2022/07/09 04:21:23;;;;;;;18.45;6.72;;;15.80;99.90;;;;;;4946410;28;206482;-81
2022/07/09 04:23:52;;;;;;;13.63;6.32;;;15.80;99.90;;;;;;5002865;28;20050;-83
2022/07/09 04:26:18;;;;;;;15.23;6.97;;;15.90;99.90;;;;;;4933559;28;205938;-81
2022/07/09 04:28:45;;;;;;;16.02;7.10;;;15.90;99.90;;;;;;4998397;28;20050;-81
2022/07/09 04:31:15;;;;;;;19.20;7.22;;;15.90;99.90;;;;;;4938718;28;221893;-81
2022/07/09 04:33:43;;;;;;;14.65;6.18;;;16.00;99.90;;;;;;4981466;28;20057;-81
2022/07/09 04:36:10;;;;;;;20.10;6.32;;;16.00;99.90;;;;;;4941124;28;207333;-81
2022/07/09 04:38:36;;;;;;;18.05;6.93;;;16.10;99.90;;;;;;4999775;28;20415;-83
2022/07/09 04:41:03;;;;;;;18.33;7.50;;;16.10;99.90;;;;;;4966782;28;135444;-81
2022/07/09 04:43:29;;;;;;;17.92;7.38;;;16.10;99.90;;;;;;4998773;28;20050;-81
2022/07/09 04:45:55;;;;;;;17.27;7.88;;;16.10;99.90;;;;;;4947951;28;209497;-82
2022/07/09 04:48:22;;;;;;;17.40;7.60;;;16.20;99.90;;;;;;4993554;28;20093;-81
2022/07/09 04:50:50;;;;;;;17.83;7.43;;;16.20;99.90;;;;;;4953078;28;205287;-81
2022/07/09 04:53:16;;;;;;;15.60;7.57;;;16.20;99.90;;;;;;4995017;28;20046;-81
2022/07/09 04:55:42;;;;;;;18.60;7.57;;;16.20;99.90;;;;;;4952423;28;201528;-81
2022/07/09 04:58:09;;;;;;;21.45;7.65;;;16.20;99.90;;;;;;5003358;28;20053;-82
2022/07/09 05:00:35;;;;;;;18.33;7.57;;;16.30;99.90;;;;;;4939759;28;204945;-82
2022/07/09 05:03:02;;;;;;;16.27;8.00;;;16.30;99.90;;;;;;4987483;28;20214;-81
2022/07/09 05:05:28;;;;;;;15.93;7.07;;;16.30;99.90;;;;;;4936788;28;212181;-82
2022/07/09 05:07:54;;;;;;;16.27;8.57;;;16.30;99.90;;;;;;4976227;28;20148;-82
2022/07/09 05:10:20;;;;;;;21.83;8.18;;;16.40;99.90;;;;;;4957364;28;212188;-81
2022/07/09 05:12:47;;;;;;;17.13;8.18;;;16.40;99.90;;;;;;4983237;28;20062;-81
2022/07/09 05:15:13;;;;;;;16.48;7.72;;;16.40;99.90;;;;;;4983639;28;91623;-81
2022/07/09 05:17:40;;;;;;;17.45;7.55;;;16.50;99.90;;;;;;4954253;28;232044;-81
2022/07/09 05:20:08;;;;;;;16.45;7.72;;;16.60;99.90;;;;;;5012949;28;96025;-82
2022/07/09 05:22:35;;;;;;;18.55;8.25;;;16.60;99.90;;;;;;4978653;28;208758;-81
2022/07/09 05:25:05;;;;;;;16.33;7.20;;;16.70;99.90;;;;;;5002653;28;245189;-82
2022/07/09 05:27:31;;;;;;;15.10;7.25;;;16.80;99.90;;;;;;4951298;28;212935;-81
2022/07/09 05:29:58;;;;;;;15.80;7.20;;;16.80;99.90;;;;;;4997864;28;94774;-83
2022/07/09 05:32:24;;;;;;;18.58;7.43;;;16.90;99.90;;;;;;4960976;28;133723;-82
2022/07/09 05:34:50;;;;;;;16.83;7.65;;;17.00;99.90;;;;;;5003589;28;130246;-81
2022/07/09 05:37:16;;;;;;;15.27;7.75;;;17.10;99.90;;;;;;4961884;28;237698;-81
2022/07/09 05:39:43;;;;;;;15.90;7.03;;;17.10;99.90;;;;;;5001996;28;163466;-81
2022/07/09 05:42:09;;;;;;;13.65;6.65;;;17.20;99.90;;;;;;4978184;28;208247;-82
2022/07/09 05:44:36;;;;;;;18.23;7.28;;;17.30;99.90;;;;;;4995825;28;265085;-81
2022/07/09 05:47:02;;;;;;;18.52;6.97;;;17.30;99.90;;;;;;4947681;28;205163;-81
2022/07/09 05:49:29;;;;;;;15.35;6.53;;;17.40;99.90;;;;;;4987699;28;256019;-81
2022/07/09 05:51:55;;;;;;;12.43;6.35;;;17.40;99.90;;;;;;4940963;28;220914;-81
2022/07/09 05:54:21;;;;;;;15.85;6.80;;;17.40;99.90;;;;;;4980939;28;270758;-81
2022/07/09 05:56:47;;;;;;;15.10;6.47;;;17.50;99.90;;;;;;4963282;28;109030;-82
2022/07/09 05:59:14;;;;;;;15.00;6.18;;;17.50;99.90;;;;;;4995638;28;259092;-82
2022/07/09 06:01:42;;;;;;;18.67;6.40;;;17.60;99.90;;;;;;4979971;28;206491;-81
2022/07/09 06:04:09;;;;;;;15.63;6.25;;;17.60;99.90;;;;;;5011517;28;255232;-82
2022/07/09 06:06:35;;;;;;;14.95;6.05;;;17.60;99.90;;;;;;4937397;28;207667;-81
2022/07/09 06:09:01;;;;;;;14.90;5.90;;;17.60;99.90;;;;;;5001886;28;20069;-79
2022/07/09 06:11:28;;;;;;;14.27;5.78;;;17.60;99.90;;;;;;4945670;28;210183;-81
2022/07/09 06:13:54;;;;;;;15.50;6.18;;;17.70;99.90;;;;;;5007047;28;20061;-81
2022/07/09 06:16:21;;;;;;;13.65;5.45;;;17.70;99.90;;;;;;4955650;28;263564;-80
2022/07/09 06:18:47;;;;;;;14.70;5.50;;;17.80;99.90;;;;;;4998228;28;20046;-81
2022/07/09 06:21:14;;;;;;;13.82;5.15;;;17.80;99.90;;;;;;4963576;28;174726;-80
2022/07/09 06:23:40;;;;;;;11.52;4.50;;;17.80;99.90;;;;;;5009126;28;20046;-80
2022/07/09 06:26:07;;;;;;;14.05;4.70;;;17.80;99.90;;;;;;4945552;28;235475;-82
2022/07/09 06:28:36;;;;;;;13.07;4.53;;;17.90;99.90;;;;;;4996588;28;20711;-81
2022/07/09 06:31:03;;;;;;;11.00;4.30;;;17.90;99.90;;;;;;4951021;28;216579;-81
2022/07/09 06:33:30;;;;;;;11.15;4.43;;;17.90;99.90;;;;;;4972602;28;20064;-80
2022/07/09 06:35:56;;;;;;;10.75;4.70;;;18.00;99.90;;;;;;4959106;28;273915;-81
2022/07/09 06:38:22;;;;;;;11.48;4.47;;;18.00;99.90;;;;;;5020915;28;20046;-82
2022/07/09 06:40:48;;;;;;;11.15;3.95;;;18.00;99.90;;;;;;4956776;28;209025;-81
2022/07/09 06:43:14;;;;;;;12.23;4.57;;;18.10;99.90;;;;;;5004038;28;20056;-81
2022/07/09 06:45:41;;;;;;;13.50;4.40;;;18.10;99.90;;;;;;4967236;28;170425;-81
2022/07/09 06:48:07;;;;;;;11.93;4.13;;;18.10;99.90;;;;;;5008296;28;20076;-81
2022/07/09 06:50:33;;;;;;;15.70;4.35;;;18.20;99.90;;;;;;4959231;28;225992;-82
2022/07/09 06:52:59;;;;;;;9.65;3.88;;;18.20;99.90;;;;;;4995761;28;20057;-80
2022/07/09 06:55:25;;;;;;;11.15;3.75;;;18.30;99.90;;;;;;4951452;28;286603;-81
2022/07/09 06:57:52;;;;;;;12.60;3.88;;;18.30;99.90;;;;;;5016020;28;20069;-80
2022/07/09 07:00:18;;;;;;;12.38;3.80;;;18.40;99.90;;;;;;4983257;28;214832;-82
2022/07/09 07:02:44;;;;;;;12.35;4.00;;;18.30;99.90;;;;;;5005149;28;113600;-81
2022/07/09 07:05:10;;;;;;;11.05;3.58;;;18.30;99.90;;;;;;4966246;28;135183;-81
2022/07/09 07:07:37;;;;;;;11.35;3.58;;;18.30;99.90;;;;;;4951044;28;211267;-82
2022/07/09 07:10:05;;;;;;;11.32;3.72;;;18.30;99.90;;;;;;5007071;28;251771;-81
2022/07/09 07:12:32;;;;;;;9.15;3.45;;;18.40;99.90;;;;;;4955468;28;128393;-80
2022/07/09 07:15:00;;;;;;;14.70;4.00;;;18.30;99.90;;;;;;4993931;28;113112;-82
2022/07/09 07:17:26;;;;;;;10.43;3.47;;;18.30;99.90;;;;;;4934571;28;229167;-80
2022/07/09 07:19:52;;;;;;;12.32;3.47;;;18.40;99.90;;;;;;5000384;28;263967;-81
2022/07/09 07:22:18;;;;;;;11.88;3.15;;;18.40;99.90;;;;;;4959958;28;210782;-81
2022/07/09 07:24:51;;;;;;;13.23;3.40;;;18.30;99.90;;;;;;5004576;28;264452;-81
2022/07/09 07:27:17;;;;;;;11.23;3.22;;;18.20;99.90;;;;;;4966084;28;152334;-81
2022/07/09 07:29:43;;;;;;;9.02;3.03;;;18.30;99.90;;;;;;4983938;28;250622;-82
2022/07/09 07:32:09;;;;;;;9.60;2.80;;;18.30;99.90;;;;;;4946632;28;209238;-81
2022/07/09 07:34:35;;;;;;;11.95;2.80;;;18.30;99.90;;;;;;4983713;28;207104;-81
2022/07/09 07:37:01;;;;;;;10.80;2.88;;;18.40;99.90;;;;;;4951711;28;143175;-81
2022/07/09 07:39:27;;;;;;;12.38;2.90;;;18.50;99.90;;;;;;4982950;28;253199;-81
2022/07/09 07:41:54;;;;;;;9.93;2.63;;;18.60;99.90;;;;;;4950406;28;213660;-81
2022/07/09 07:44:20;;;;;;;11.27;2.63;;;18.70;99.90;;;;;;4990446;28;254972;-81
2022/07/09 07:46:46;;;;;;;8.75;2.65;;;18.80;99.90;;;;;;4978705;28;207005;-81
2022/07/09 07:49:12;;;;;;;10.00;2.40;;;18.80;99.90;;;;;;4991022;28;266966;-82
2022/07/09 07:51:39;;;;;;;12.20;2.72;;;18.90;99.90;;;;;;4962409;28;209616;-80
2022/07/09 07:54:06;;;;;;;11.52;2.53;;;19.00;99.90;;;;;;5003954;28;20415;-78
2022/07/09 07:56:33;;;;;;;12.68;2.60;;;19.10;99.90;;;;;;4926292;28;251707;-79
2022/07/09 07:58:59;;;;;;;10.65;2.28;;;19.20;99.90;;;;;;4997183;28;20054;-78
2022/07/09 08:01:25;;;;;;;9.63;2.40;;;19.40;99.90;;;;;;4947097;28;153248;-79
2022/07/09 08:03:51;;;;;;;11.07;2.35;;;19.60;99.90;;;;;;4984380;28;20065;-80
2022/07/09 08:06:18;;;;;;;8.88;2.38;;;19.80;99.90;;;;;;4934556;28;209933;-80
2022/07/09 08:08:44;;;;;;;11.05;2.35;;;20.10;99.90;;;;;;4997672;28;20062;-80
2022/07/09 08:11:10;;;;;;;10.35;2.08;;;20.20;99.90;;;;;;4948419;28;205905;-80
2022/07/09 08:13:36;;;;;;;8.88;1.80;;;20.50;99.90;;;;;;5018970;28;20058;-80
2022/07/09 08:16:03;;;;;;;10.55;1.85;;;20.70;99.90;;;;;;4943550;28;207477;-81
2022/07/09 08:18:29;;;;;;;11.88;1.73;;;21.00;99.90;;;;;;5028759;28;20034;-81
2022/07/09 08:20:56;;;;;;;7.93;1.80;;;20.90;99.90;;;;;;4962986;28;272786;-81
2022/07/09 08:23:22;;;;;;;8.73;1.80;;;20.80;99.90;;;;;;5007409;28;20053;-80
2022/07/09 08:25:49;;;;;;;8.98;1.67;;;20.80;99.90;;;;;;4958575;28;128048;-81
2022/07/09 08:28:16;;;;;;;7.75;1.85;;;20.60;99.90;;;;;;4998992;28;20042;-81
2022/07/09 08:30:42;;;;;;;9.63;1.80;;;20.70;99.90;;;;;;4976294;28;233715;-81
2022/07/09 08:33:08;;;;;;;10.32;1.92;;;20.70;99.90;;;;;;5013458;28;20054;-81
2022/07/09 08:35:35;;;;;;;6.75;1.45;;;21.00;99.90;;;;;;4943990;28;209661;-81
2022/07/09 08:38:01;;;;;;;6.05;1.42;;;20.90;99.90;;;;;;4994165;28;20061;-81
2022/07/09 08:40:28;;;;;;;9.95;1.92;;;20.70;99.90;;;;;;4962302;28;208443;-81
2022/07/09 08:42:54;;;;;;;9.45;1.63;;;20.60;99.90;;;;;;4992801;28;20058;-81
2022/07/09 08:45:21;;;;;;;7.07;1.60;;;20.70;99.90;;;;;;4954712;28;205825;-81
2022/07/09 08:47:47;;;;;;;7.38;1.73;;;20.60;99.90;;;;;;5009902;28;20065;-80
2022/07/09 08:50:14;;;;;;;6.97;1.85;;;21.10;99.90;;;;;;5002901;28;158700;-81
2022/07/09 08:52:42;;;;;;;6.53;1.40;;;21.70;99.90;;;;;;4984059;28;261064;-81
2022/07/09 08:55:09;;;;;;;8.68;1.60;;;21.90;99.90;;;;;;4993278;28;51761;-82
2022/07/09 08:57:35;;;;;;;8.30;1.48;;;21.70;99.90;;;;;;4923835;28;209683;-81
2022/07/09 09:00:03;;;;;;;8.65;1.50;;;21.60;99.90;;;;;;4986291;28;271612;-81
2022/07/09 09:02:37;;;;;;;9.25;1.58;;;21.10;99.90;;;;;;4975195;28;220096;-81
2022/07/09 09:05:08;;;;;;;9.85;1.58;;;21.10;99.90;;;;;;4986473;28;274419;-82
2022/07/09 09:07:34;;;;;;;9.63;1.88;;;21.30;99.90;;;;;;4944215;28;210734;-81
2022/07/09 09:10:01;;;;;;;10.32;1.48;;;21.70;99.90;;;;;;5001639;28;254402;-82
2022/07/09 09:12:28;;;;;;;8.50;1.40;;;22.10;99.90;;;;;;4942200;28;213704;-82
2022/07/09 09:14:55;;;;;;;8.80;1.30;;;22.70;99.90;;;;;;4997254;28;36595;-82
2022/07/09 09:17:21;;;;;;;9.77;1.67;;;22.40;99.90;;;;;;4962888;28;154571;-81
2022/07/09 09:19:47;;;;;;;8.77;1.70;;;22.20;99.90;;;;;;5009242;28;110426;-81
2022/07/09 09:22:17;;;;;;;10.75;1.80;;;22.20;99.90;;;;;;4967980;28;206433;-81
2022/07/09 09:24:43;;;;;;;12.20;1.70;;;22.50;99.90;;;;;;5002019;28;124533;-81
2022/07/09 09:27:09;;;;;;;10.57;1.70;;;22.90;99.90;;;;;;4970579;28;210704;-81
2022/07/09 09:29:39;;;;;;;9.20;1.67;;;22.50;99.30;;;;;;5006777;28;143315;-81
2022/07/09 09:32:12;;;;;;;9.75;1.60;;;22.60;99.90;;;;;;4953948;28;205880;-82
2022/07/09 09:34:41;;;;;;;8.75;1.40;;;23.30;99.90;;;;;;4991039;28;79678;-81
2022/07/09 09:37:08;;;;;;;8.63;1.50;;;23.40;99.20;;;;;;4941902;28;208926;-81
2022/07/09 09:39:35;;;;;;;7.95;1.52;;;22.70;98.90;;;;;;5015562;28;72581;-82
2022/07/09 09:42:13;;;;;;;7.15;1.30;;;22.50;99.20;;;;;;4963256;28;174746;-81
2022/07/09 09:44:42;;;;;;;9.90;1.50;;;22.50;98.60;;;;;;5012978;28;102813;-81
2022/07/09 09:47:10;;;;;;;8.38;1.70;;;22.30;99.00;;;;;;4923385;28;207392;-82
2022/07/09 09:49:41;;;;;;;8.55;1.50;;;22.30;99.60;;;;;;4995370;28;112408;-79
2022/07/09 09:52:09;;;;;;;9.95;1.52;;;22.60;99.60;;;;;;4946395;28;196499;-82
2022/07/09 09:54:42;;;;;;;8.95;1.20;;;23.00;99.90;;;;;;4992741;28;202780;-82
2022/07/09 09:57:10;;;;;;;7.35;1.20;;;22.90;96.40;;;;;;4954637;28;185988;-80
2022/07/09 09:59:39;;;;;;;8.40;1.35;;;22.40;97.40;;;;;;4990907;28;106229;-78
2022/07/09 10:02:06;;;;;;;7.10;1.25;;;22.40;98.50;;;;;;4940929;28;210490;-79
2022/07/09 10:04:32;;;;;;;6.97;1.40;;;23.00;97.70;;;;;;4976354;28;144802;-79
2022/07/09 10:06:59;;;;;;;10.90;1.70;;;23.10;97.80;;;;;;4936972;28;195167;-79
2022/07/09 10:09:25;;;;;;;9.32;1.55;;;23.20;98.10;;;;;;4978823;28;252586;-81
2022/07/09 10:11:51;;;;;;;9.60;1.73;;;23.40;98.30;;;;;;4941069;28;205989;-82
2022/07/09 10:14:30;;;;;;;13.27;1.98;;;23.80;98.20;;;;;;4972978;28;261573;-82
2022/07/09 10:17:08;;;;;;;10.23;1.52;;;23.70;96.80;;;;;;4956271;28;284345;-82
2022/07/09 10:19:34;;;;;;;9.25;1.73;;;23.10;97.30;;;;;;4982273;28;257497;-82
2022/07/09 10:22:00;;;;;;;9.27;1.60;;;23.10;97.90;;;;;;4947578;28;205421;-81
2022/07/09 10:24:28;;;;;;;9.95;1.73;;;23.40;98.20;;;;;;4984912;28;244830;-82
2022/07/09 10:27:11;;;;;;;14.50;1.65;;;24.20;98.40;;;;;;4959983;28;203000;-82
2022/07/09 10:29:56;;;;;;;8.25;1.58;;;24.20;92.40;;;;;;4999612;28;139901;-82
2022/07/09 10:32:26;;;;;;;10.15;1.55;;;22.90;93.50;;;;;;4962486;28;142955;-82
2022/07/09 10:35:01;;;;;;;10.85;1.95;;;22.80;95.10;;;;;;4984849;28;229729;-83
2022/07/09 10:37:52;;;;;;;10.98;1.60;;;23.30;96.90;;;;;;4923933;28;209585;-82
2022/07/09 10:40:20;;;;;;;7.47;1.40;;;23.60;94.20;;;;;;4975706;28;130808;-81
2022/07/09 10:42:58;;;;;;;9.00;1.50;;;23.70;94.30;;;;;;4974731;28;205224;-82
2022/07/09 10:45:31;;;;;;;10.95;1.52;;;23.80;94.90;;;;;;4951125;28;198757;-81
2022/07/09 10:47:59;;;;;;;8.70;1.60;;;24.10;94.60;;;;;;4994936;28;20558;-81
2022/07/09 10:50:27;;;;;;;9.05;1.30;;;24.10;94.30;;;;;;4944438;28;214966;-82
2022/07/09 10:52:54;;;;;;;10.23;1.80;;;24.00;93.40;;;;;;4985804;28;20050;-82
2022/07/09 10:55:23;;;;;;;7.28;1.33;;;23.50;94.90;;;;;;4956641;28;197071;-81
2022/07/09 10:57:57;;;;;;;10.00;1.70;;;22.70;96.40;;;;;;4991884;28;20066;-82
2022/07/09 11:00:26;;;;;;;8.77;1.70;;;22.50;97.60;;;;;;4964692;28;206707;-81
2022/07/09 11:03:04;;;;;;;12.70;1.80;;;22.80;98.20;;;;;;5013569;28;20058;-80
2022/07/09 11:05:33;;;;;;;9.15;1.67;;;22.80;97.90;;;;;;4927165;28;234515;-81
2022/07/09 11:08:03;;;;;;;10.80;1.67;;;22.40;98.20;;;;;;4988550;28;20065;-81
2022/07/09 11:10:30;;;;;;;13.60;2.10;;;22.10;98.00;;;;;;4949640;28;256898;-80
2022/07/09 11:12:59;;;;;;;12.85;2.13;;;21.90;98.40;;;;;;5002363;28;20053;-81
2022/07/09 11:15:27;;;;;;;12.60;2.05;;;21.80;98.70;;;;;;4949623;28;205680;-80
2022/07/09 11:18:11;;;;;;;12.52;2.10;;;21.70;98.80;;;;;;5007082;28;20096;-81
2022/07/09 11:20:45;;;;;;;14.20;2.17;;;21.40;99.00;;;;;;4948301;28;160755;-80
2022/07/09 11:23:12;;;;;;;13.98;2.05;;;21.60;99.00;;;;;;5009743;28;20049;-80
2022/07/09 11:25:38;;;;;;;13.20;2.13;;;21.70;98.90;;;;;;4947461;28;213066;-81
2022/07/09 11:28:05;;;;;;;13.90;2.15;;;21.70;98.90;;;;;;4978757;28;20057;-81
2022/07/09 11:30:36;;;;;;;10.85;1.90;;;21.50;98.80;;;;;;4948827;28;210077;-81
2022/07/09 11:33:02;;;;;;;10.95;1.70;;;21.50;98.80;;;;;;4994837;28;20053;-81
2022/07/09 11:35:33;;;;;;;12.50;1.60;;;21.40;98.60;;;;;;4952611;28;226223;-80
2022/07/09 11:38:01;;;;;;;11.38;1.70;;;21.40;98.80;;;;;;4979469;28;20057;-80
2022/07/09 11:40:28;;;;;;;11.00;1.60;;;21.70;98.80;;;;;;4949447;28;245995;-80
2022/07/09 11:42:54;;;;;;;11.00;1.60;;;22.00;98.00;;;;;;4998536;28;20046;-80
2022/07/09 11:45:25;;;;;;;10.45;1.88;;;22.50;97.70;;;;;;4967319;28;199544;-79
2022/07/09 11:48:02;;;;;;;8.80;1.42;;;22.90;97.30;;;;;;5019205;28;20053;-81
2022/07/09 11:50:28;;;;;;;9.67;1.37;;;23.00;96.20;;;;;;4960520;28;217846;-80
2022/07/09 11:52:55;;;;;;;10.35;1.60;;;23.00;95.50;;;;;;5014766;28;20054;-81
2022/07/09 11:55:29;;;;;;;7.97;1.30;;;22.90;93.90;;;;;;4970552;28;208218;-81
2022/07/09 11:57:57;;;;;;;10.82;1.70;;;23.10;92.90;;;;;;4997234;28;20056;-80
2022/07/09 12:00:27;;;;;;;10.07;1.58;;;23.00;93.40;;;;;;4957749;28;204339;-81
2022/07/09 12:03:01;;;;;;;8.38;1.20;;;23.40;92.80;;;;;;5002151;28;20038;-80
2022/07/09 12:05:31;;;;;;;8.77;1.30;;;23.60;90.30;;;;;;4950813;28;268224;-81
2022/07/09 12:07:59;;;;;;;7.82;1.23;;;23.90;87.80;;;;;;5005205;28;20054;-82
2022/07/09 12:10:30;;;;;;;8.65;1.25;;;24.10;80.60;;;;;;4957332;28;174718;-83
2022/07/09 12:12:57;;;;;;;8.52;1.30;;;24.30;78.50;;;;;;5000865;28;20054;-82
2022/07/09 12:15:23;;;;;;;8.43;1.30;;;24.60;78.10;;;;;;4930563;28;207413;-82
2022/07/09 12:17:58;;;;;;;7.57;1.33;;;24.80;76.10;;;;;;5004898;28;20054;-83
2022/07/09 12:20:26;;;;;;;8.25;1.17;;;24.40;72.80;;;;;;4959131;28;208329;-83
2022/07/09 12:22:54;;;;;;;12.32;1.60;;;24.50;73.70;;;;;;4991435;28;20073;-82
2022/07/09 12:25:21;;;;;;;7.55;1.38;;;24.40;70.80;;;;;;4960530;28;207854;-82
2022/07/09 12:27:49;;;;;;;7.18;1.17;;;24.60;74.40;;;;;;4994569;28;20407;-83
2022/07/09 12:30:16;;;;;;;10.98;1.40;;;24.30;72.80;;;;;;4992537;28;140220;-82
2022/07/09 12:32:43;;;;;;;7.78;1.40;;;24.30;74.30;;;;;;4973574;28;205445;-82